Melrose, Virginia
Current Conditions -  °F | °C
As of 7:54 AM on Saturday 25 Oct 2014 (Local Time) from KROA Reporting Station
Clear Clear  
Wind Chill: 42°   Ceiling: Unl
Heat Index: 45°   Visibility: 10mi
Dew Point: 37°   Wind: 6mph
Humidity: 74%   Direction: 300°WNW
Pressure: 30.06"   Gusts: NA
Location:  37.2953°N, 79.9917°W
Report Text: KROA 251154Z 30005KT 10SM CLR 07/03 A3006 RMK AO2 SLP178 T00720028 10100 20056 51008
Loading
Personal Weather Stations






























Interactive Weather Map
Tropical Storm Tracking
New forecast layout! Learn more

10-Day Weather Forecast

Advertisements
Track Severe Weather on mobile